createdAt,value
2018-06-27T00:00:43.483Z,15.95
2018-06-27T00:01:43.449Z,15.91
2018-06-27T00:02:43.438Z,15.85
2018-06-27T00:03:43.440Z,15.80
2018-06-27T00:04:43.415Z,15.82
2018-06-27T00:05:43.405Z,15.69
2018-06-27T00:06:43.398Z,15.61
2018-06-27T00:07:43.384Z,15.52
2018-06-27T00:08:43.385Z,15.52
2018-06-27T00:09:43.361Z,15.39
2018-06-27T00:10:43.350Z,15.42
2018-06-27T00:11:43.372Z,15.40
2018-06-27T00:12:43.335Z,15.39
2018-06-27T00:13:43.338Z,15.42
2018-06-27T00:14:43.306Z,15.51
2018-06-27T00:15:43.295Z,15.60
2018-06-27T00:16:43.285Z,15.60
2018-06-27T00:17:43.273Z,15.62
2018-06-27T00:18:43.281Z,15.62
2018-06-27T00:19:43.254Z,15.58
2018-06-27T00:20:43.247Z,15.58
2018-06-27T00:21:43.232Z,15.55
2018-06-27T00:22:43.219Z,15.68
2018-06-27T00:23:43.208Z,15.64
2018-06-27T00:24:43.213Z,15.61
2018-06-27T00:25:43.186Z,15.61
2018-06-27T00:26:43.177Z,15.54
2018-06-27T00:27:43.167Z,15.61
2018-06-27T00:28:43.154Z,15.52
2018-06-27T00:29:43.160Z,15.50
2018-06-27T00:30:43.179Z,15.60
2018-06-27T00:31:43.120Z,15.60
2018-06-27T00:32:43.109Z,15.52
2018-06-27T00:33:43.099Z,15.62
2018-06-27T00:34:43.111Z,15.58
2018-06-27T00:35:44.346Z,15.58
2018-06-27T00:36:43.066Z,15.54
2018-06-27T00:37:43.057Z,15.57
2018-06-27T00:38:43.044Z,15.57
2018-06-27T00:39:43.035Z,15.44
2018-06-27T00:40:43.040Z,15.50
2018-06-27T00:41:43.014Z,15.50
2018-06-27T00:42:43.003Z,15.50
2018-06-27T00:43:42.995Z,15.52
2018-06-27T00:44:42.981Z,15.42
2018-06-27T00:45:42.983Z,15.44
2018-06-27T00:46:42.959Z,15.40
2018-06-27T00:47:42.954Z,15.30
2018-06-27T00:48:42.936Z,15.28
2018-06-27T00:49:42.926Z,15.25
2018-06-27T00:50:42.934Z,15.19
2018-06-27T00:51:42.907Z,15.11
2018-06-27T00:52:42.894Z,15.18
2018-06-27T00:53:42.881Z,15.22
2018-06-27T00:54:42.873Z,15.14
2018-06-27T00:55:42.860Z,15.14
2018-06-27T00:56:42.863Z,15.15
2018-06-27T00:57:42.840Z,15.18
2018-06-27T00:58:42.829Z,15.18
2018-06-27T00:59:42.817Z,15.21
2018-06-27T01:00:42.805Z,15.14
2018-06-27T01:01:42.818Z,15.14
2018-06-27T01:02:42.800Z,15.19
2018-06-27T01:03:42.772Z,15.17
2018-06-27T01:04:42.761Z,15.18
2018-06-27T01:05:42.751Z,15.18
2018-06-27T01:06:42.741Z,15.21
2018-06-27T01:07:42.745Z,15.17
2018-06-27T01:08:42.719Z,15.21
2018-06-27T01:09:42.708Z,15.18
2018-06-27T01:10:42.758Z,15.06
2018-06-27T01:11:42.692Z,15.17
2018-06-27T01:12:42.691Z,15.14
2018-06-27T01:13:42.667Z,15.04
2018-06-27T01:14:42.659Z,15.06
2018-06-27T01:15:42.646Z,15.06
2018-06-27T01:16:42.638Z,15.06
2018-06-27T01:17:42.647Z,15.07
2018-06-27T01:18:42.616Z,15.06
2018-06-27T01:19:42.602Z,15.04
2018-06-27T01:20:42.594Z,15.06
2018-06-27T01:21:42.588Z,15.04
2018-06-27T01:22:42.572Z,15.04
2018-06-27T01:23:42.575Z,15.07
2018-06-27T01:24:42.551Z,15.04
2018-06-27T01:25:42.537Z,14.96
2018-06-27T01:26:42.533Z,15.00
2018-06-27T01:27:42.518Z,14.95
2018-06-27T01:28:42.527Z,14.99
2018-06-27T01:29:42.497Z,14.97
2018-06-27T01:30:42.486Z,14.97
2018-06-27T01:31:42.473Z,14.96
2018-06-27T01:32:42.463Z,14.91
2018-06-27T01:33:42.472Z,14.95
2018-06-27T01:34:42.443Z,14.97
2018-06-27T01:35:42.450Z,14.88
2018-06-27T01:36:42.421Z,14.88
2018-06-27T01:37:42.416Z,14.82
2018-06-27T01:38:42.413Z,14.87
2018-06-27T01:42:00.197Z,14.85
2018-06-27T01:43:00.188Z,14.87
2018-06-27T01:44:00.189Z,14.88
2018-06-27T01:45:00.183Z,14.95
2018-06-27T01:46:00.152Z,14.82
2018-06-27T01:47:00.142Z,14.81
2018-06-27T01:48:00.132Z,14.81
2018-06-27T01:49:00.122Z,14.89
2018-06-27T01:50:00.124Z,14.91
2018-06-27T01:51:00.099Z,14.88
2018-06-27T01:52:00.091Z,14.78
2018-06-27T01:53:00.078Z,14.87
2018-06-27T01:54:00.069Z,14.82
2018-06-27T01:55:00.086Z,14.88
2018-06-27T01:56:00.047Z,14.81
2018-06-27T01:57:00.035Z,14.78
2018-06-27T01:58:00.027Z,14.70
2018-06-27T01:59:00.014Z,14.85
2018-06-27T02:00:00.018Z,14.78
2018-06-27T02:00:59.990Z,14.78
2018-06-27T02:01:59.980Z,14.82
2018-06-27T02:02:59.966Z,14.81
2018-06-27T02:03:59.954Z,14.74
2018-06-27T02:04:59.957Z,14.78
2018-06-27T02:05:59.934Z,14.70
2018-06-27T02:06:59.922Z,14.73
2018-06-27T02:07:59.912Z,14.77
2018-06-27T02:08:59.900Z,14.69
2018-06-27T02:09:59.908Z,14.74
2018-06-27T02:10:59.876Z,14.69
2018-06-27T02:11:59.881Z,14.73
2018-06-27T02:12:59.859Z,14.73
2018-06-27T02:13:59.852Z,14.63
2018-06-27T02:14:59.833Z,14.58
2018-06-27T02:15:59.840Z,14.63
2018-06-27T02:16:59.809Z,14.56
2018-06-27T02:17:59.798Z,14.53
2018-06-27T02:18:59.787Z,14.59
2018-06-27T02:19:59.777Z,14.61
2018-06-27T02:20:59.802Z,14.61
2018-06-27T02:21:59.757Z,14.61
2018-06-27T02:22:59.742Z,14.59
2018-06-27T02:23:59.732Z,14.63
2018-06-27T02:24:59.760Z,14.65
2018-06-27T02:25:59.712Z,14.62
2018-06-27T02:26:59.717Z,14.61
2018-06-27T02:27:59.689Z,14.55
2018-06-27T02:28:59.676Z,14.61
2018-06-27T02:29:59.664Z,14.51
2018-06-27T02:30:59.659Z,14.55
2018-06-27T02:31:59.658Z,14.51
2018-06-27T02:32:59.633Z,14.51
2018-06-27T02:33:59.620Z,14.55
2018-06-27T02:34:59.611Z,14.56
2018-06-27T02:35:59.598Z,14.48
2018-06-27T02:36:59.607Z,14.55
2018-06-27T02:37:59.576Z,14.58
2018-06-27T02:38:59.577Z,14.48
2018-06-27T02:39:59.554Z,14.44
2018-06-27T02:40:59.544Z,14.47
2018-06-27T02:41:59.532Z,14.43
2018-06-27T02:42:59.533Z,14.40
2018-06-27T02:43:59.510Z,14.38
2018-06-27T02:44:59.498Z,14.43
2018-06-27T02:45:59.488Z,14.40
2018-06-27T02:46:59.474Z,14.41
2018-06-27T02:47:59.479Z,14.41
2018-06-27T02:48:59.456Z,14.41
2018-06-27T02:49:59.443Z,14.43
2018-06-27T02:50:59.433Z,14.38
2018-06-27T02:51:59.421Z,14.38
2018-06-27T02:52:59.446Z,14.37
2018-06-27T02:53:59.397Z,14.36
2018-06-27T02:54:59.387Z,14.23
2018-06-27T02:55:59.374Z,14.32
2018-06-27T02:56:59.378Z,14.23
2018-06-27T02:57:59.352Z,14.25
2018-06-27T02:58:59.354Z,14.32
2018-06-27T02:59:59.330Z,14.38
2018-06-27T03:00:59.318Z,14.29
2018-06-27T03:01:59.309Z,14.30
2018-06-27T03:02:59.298Z,14.38
2018-06-27T03:03:59.305Z,14.26
2018-06-27T03:04:59.275Z,14.29
2018-06-27T03:05:59.265Z,14.29
2018-06-27T03:06:59.263Z,14.26
2018-06-27T03:07:59.241Z,14.22
2018-06-27T03:08:59.244Z,14.20
2018-06-27T03:09:59.218Z,14.20
2018-06-27T03:10:59.208Z,14.30
2018-06-27T03:11:59.198Z,14.20
2018-06-27T03:12:59.187Z,14.13
2018-06-27T03:13:59.194Z,14.23
2018-06-27T03:14:59.165Z,14.22
2018-06-27T03:15:59.230Z,14.13
2018-06-27T03:16:59.143Z,14.13
2018-06-27T03:17:59.134Z,14.03
2018-06-27T03:18:59.121Z,14.05
2018-06-27T03:19:59.122Z,14.04
2018-06-27T03:20:59.097Z,14.07
2018-06-27T03:21:59.085Z,14.10
2018-06-27T03:22:59.075Z,14.01
2018-06-27T03:23:59.065Z,14.05
2018-06-27T03:24:59.065Z,14.10
2018-06-27T03:25:59.042Z,14.07
2018-06-27T03:26:59.030Z,14.10
2018-06-27T03:27:59.020Z,14.08
2018-06-27T03:28:59.009Z,13.96
2018-06-27T03:29:59.011Z,14.00
2018-06-27T03:30:58.985Z,14.04
2018-06-27T03:31:58.976Z,14.05
2018-06-27T03:32:58.967Z,13.93
2018-06-27T03:33:58.951Z,14.03
2018-06-27T03:34:58.954Z,14.01
2018-06-27T03:35:58.929Z,14.07
2018-06-27T03:36:58.923Z,14.08
2018-06-27T03:37:58.925Z,14.08
2018-06-27T03:38:58.898Z,14.07
2018-06-27T03:39:58.918Z,14.00
2018-06-27T03:40:58.927Z,14.07
2018-06-27T03:41:58.861Z,13.93
2018-06-27T03:42:58.857Z,14.00
2018-06-27T03:43:58.864Z,14.05
2018-06-27T03:44:58.855Z,14.23
2018-06-27T03:45:58.820Z,14.38
2018-06-27T03:46:58.808Z,14.55
2018-06-27T03:47:58.794Z,14.81
2018-06-27T03:48:58.795Z,14.95
2018-06-27T03:49:58.810Z,15.07
2018-06-27T03:50:58.763Z,15.21
2018-06-27T03:51:58.751Z,15.25
2018-06-27T03:52:58.739Z,15.42
2018-06-27T03:53:58.727Z,15.46
2018-06-27T03:54:58.733Z,15.68
2018-06-27T03:55:58.706Z,15.73
2018-06-27T03:56:58.697Z,16.13
2018-06-27T03:57:58.684Z,16.51
2018-06-27T03:58:58.678Z,16.79
2018-06-27T03:59:58.679Z,17.02
2018-06-27T04:00:58.653Z,17.26
2018-06-27T04:01:58.642Z,17.41
2018-06-27T04:02:58.636Z,17.53
2018-06-27T04:03:58.620Z,17.73
2018-06-27T04:04:58.622Z,17.86
2018-06-27T04:05:58.597Z,18.09
2018-06-27T04:06:58.595Z,18.23
2018-06-27T04:07:58.575Z,18.46
2018-06-27T04:08:58.566Z,18.50
2018-06-27T04:09:58.570Z,18.75
2018-06-27T04:10:58.542Z,18.75
2018-06-27T04:11:58.532Z,18.96
2018-06-27T04:12:58.607Z,19.15
2018-06-27T04:13:58.511Z,18.83
2018-06-27T04:14:58.512Z,19.14
2018-06-27T04:15:58.486Z,18.74
2018-06-27T04:16:58.483Z,18.62
2018-06-27T04:17:58.465Z,18.75
2018-06-27T04:18:58.455Z,19.11
2018-06-27T04:19:58.457Z,18.96
2018-06-27T04:20:58.434Z,18.93
2018-06-27T04:21:58.422Z,19.11
2018-06-27T04:22:58.412Z,19.45
2018-06-27T04:23:58.400Z,19.70
2018-06-27T04:24:58.405Z,20.11
2018-06-27T04:25:58.377Z,20.37
2018-06-27T04:26:58.366Z,20.78
2018-06-27T04:27:58.356Z,20.99
2018-06-27T04:28:58.347Z,20.99
2018-06-27T04:29:58.350Z,20.57
2018-06-27T04:30:58.322Z,20.82
2018-06-27T04:31:58.311Z,21.22
2018-06-27T04:32:58.301Z,21.51
2018-06-27T04:33:58.290Z,21.84
2018-06-27T04:34:58.292Z,22.03
2018-06-27T04:35:58.329Z,22.11
2018-06-27T04:36:58.257Z,22.03
2018-06-27T04:37:58.251Z,22.40
2018-06-27T04:38:58.238Z,22.72
2018-06-27T04:39:58.245Z,23.07
2018-06-27T04:40:58.260Z,23.21
2018-06-27T04:41:58.202Z,23.44
2018-06-27T04:42:58.191Z,23.53
2018-06-27T04:43:58.181Z,23.13
2018-06-27T04:44:58.189Z,22.51
2018-06-27T04:45:58.157Z,22.19
2018-06-27T04:46:58.146Z,22.68
2018-06-27T04:47:58.135Z,23.09
2018-06-27T04:48:58.126Z,23.53
2018-06-27T04:49:58.127Z,23.90
2018-06-27T04:50:58.103Z,24.11
2018-06-27T04:51:58.090Z,24.50
2018-06-27T04:52:58.099Z,24.93
2018-06-27T04:53:58.068Z,24.89
2018-06-27T04:54:58.143Z,25.13
2018-06-27T04:55:58.048Z,24.96
2018-06-27T04:56:58.037Z,24.96
2018-06-27T04:57:58.027Z,24.85
2018-06-27T04:58:58.013Z,25.13
2018-06-27T04:59:58.059Z,25.22
2018-06-27T05:00:57.992Z,25.07
2018-06-27T05:01:57.985Z,25.26
2018-06-27T05:02:57.969Z,25.65
2018-06-27T05:03:57.966Z,26.06
2018-06-27T05:04:57.966Z,26.20
2018-06-27T05:05:57.938Z,25.92
2018-06-27T05:06:57.926Z,25.99
2018-06-27T05:07:57.915Z,25.45
2018-06-27T05:08:57.905Z,25.30
2018-06-27T05:09:57.909Z,25.65
2018-06-27T05:10:57.883Z,25.74
2018-06-27T05:11:57.877Z,25.77
2018-06-27T05:12:57.865Z,25.78
2018-06-27T05:13:57.851Z,25.66
2018-06-27T05:14:57.857Z,25.19
2018-06-27T05:15:57.883Z,25.30
2018-06-27T05:16:57.816Z,25.75
2018-06-27T05:17:57.807Z,25.92
2018-06-27T05:18:57.795Z,25.95
2018-06-27T05:19:57.783Z,25.77
2018-06-27T05:20:57.789Z,25.77
2018-06-27T05:21:57.774Z,25.51
2018-06-27T05:22:57.750Z,25.82
2018-06-27T05:23:57.740Z,25.77
2018-06-27T05:24:57.729Z,25.30
2018-06-27T05:25:57.741Z,25.01
2018-06-27T05:26:57.708Z,25.53
2018-06-27T05:27:57.697Z,26.19
2018-06-27T05:28:57.685Z,26.90
2018-06-27T05:29:57.680Z,27.29
2018-06-27T05:30:57.668Z,27.68
2018-06-27T05:31:57.672Z,27.62
2018-06-27T05:32:57.643Z,26.78
2018-06-27T05:33:57.658Z,25.67
2018-06-27T05:34:57.621Z,25.50
2018-06-27T05:35:57.610Z,25.77
2018-06-27T05:36:57.600Z,26.56
2018-06-27T05:37:57.603Z,27.39
2018-06-27T05:38:57.578Z,28.23
2018-06-27T05:39:57.567Z,28.90
2018-06-27T05:40:57.558Z,29.41
2018-06-27T05:41:57.550Z,29.66
2018-06-27T05:42:57.553Z,29.23
2018-06-27T05:43:57.524Z,29.11
2018-06-27T05:44:57.519Z,29.41
2018-06-27T05:45:57.504Z,29.57
2018-06-27T05:46:57.492Z,29.04
2018-06-27T05:47:57.503Z,28.97
2018-06-27T05:48:57.470Z,27.82
2018-06-27T05:49:57.459Z,27.24
2018-06-27T05:50:57.449Z,27.37
2018-06-27T05:51:57.439Z,27.60
2018-06-27T05:52:57.443Z,28.14
2018-06-27T05:53:57.420Z,28.39
2018-06-27T05:54:57.406Z,28.64
2018-06-27T05:55:57.399Z,27.97
2018-06-27T05:56:57.393Z,27.82
2018-06-27T05:57:57.392Z,27.86
2018-06-27T05:58:57.369Z,28.19
2018-06-27T05:59:57.360Z,27.41
2018-06-27T06:00:57.356Z,28.04
2018-06-27T06:01:57.336Z,27.89
2018-06-27T06:02:57.337Z,28.29
2018-06-27T06:03:57.314Z,28.45
2018-06-27T06:04:57.301Z,28.61
2018-06-27T06:05:57.289Z,29.05
2018-06-27T06:06:57.280Z,28.93
2018-06-27T06:07:57.282Z,28.73
2018-06-27T06:08:57.256Z,28.90
2018-06-27T06:09:57.259Z,29.02
2018-06-27T06:10:57.240Z,29.29
2018-06-27T06:11:57.228Z,29.70
2018-06-27T06:12:57.235Z,29.81
2018-06-27T06:13:57.205Z,29.83
2018-06-27T06:14:57.194Z,29.73
2018-06-27T06:15:57.185Z,29.41
2018-06-27T06:16:57.175Z,29.42
2018-06-27T06:17:57.180Z,29.79
2018-06-27T06:18:57.157Z,30.56
2018-06-27T06:19:57.143Z,30.81
2018-06-27T06:20:57.137Z,31.18
2018-06-27T06:21:57.122Z,30.97
2018-06-27T06:22:57.130Z,31.16
2018-06-27T06:23:57.105Z,31.22
2018-06-27T06:24:57.092Z,30.89
2018-06-27T06:25:57.083Z,30.67
2018-06-27T06:26:57.075Z,31.06
2018-06-27T06:27:57.097Z,31.48
2018-06-27T06:28:57.063Z,31.67
2018-06-27T06:29:57.040Z,31.34
2018-06-27T06:30:57.031Z,31.44
2018-06-27T06:31:57.021Z,31.49
2018-06-27T06:32:57.011Z,30.89
2018-06-27T06:33:57.012Z,30.85
2018-06-27T06:34:56.987Z,30.25
2018-06-27T06:35:56.978Z,30.00
2018-06-27T06:36:56.971Z,29.58
2018-06-27T06:37:56.956Z,29.51
2018-06-27T06:38:56.954Z,29.47
2018-06-27T06:39:56.952Z,29.76
2018-06-27T06:40:56.925Z,28.95
2018-06-27T06:41:56.917Z,29.39
2018-06-27T06:42:57.180Z,30.32
2018-06-27T06:43:56.897Z,30.22
2018-06-27T06:44:56.898Z,30.28
2018-06-27T06:45:56.917Z,30.40
2018-06-27T06:46:56.877Z,31.34
2018-06-27T06:47:56.863Z,31.78
2018-06-27T06:48:56.843Z,32.50
2018-06-27T06:49:56.864Z,32.87
2018-06-27T06:50:56.821Z,33.18
2018-06-27T06:51:56.813Z,32.82
2018-06-27T06:52:56.802Z,32.79
2018-06-27T06:53:56.796Z,33.06
2018-06-27T06:54:56.798Z,32.23
2018-06-27T06:55:56.771Z,31.77
2018-06-27T06:56:56.763Z,32.09
2018-06-27T06:57:56.752Z,32.79
2018-06-27T06:58:56.741Z,32.65
2018-06-27T06:59:56.747Z,32.50
2018-06-27T07:00:56.722Z,32.53
2018-06-27T07:01:56.712Z,32.16
2018-06-27T07:02:56.704Z,32.00
2018-06-27T07:03:56.694Z,32.16
2018-06-27T07:04:56.742Z,31.97
2018-06-27T07:05:56.681Z,32.08
2018-06-27T07:06:56.661Z,32.31
2018-06-27T07:07:56.654Z,32.55
2018-06-27T07:08:56.641Z,32.93
2018-06-27T07:09:56.646Z,33.34
2018-06-27T07:10:56.626Z,33.46
2018-06-27T07:11:56.616Z,33.28
2018-06-27T07:12:56.601Z,32.55
2018-06-27T07:13:56.592Z,31.73
2018-06-27T07:14:56.604Z,29.28
2018-06-27T07:15:56.575Z,29.50
2018-06-27T07:16:56.635Z,30.43
2018-06-27T07:17:56.555Z,30.66
2018-06-27T07:18:56.547Z,30.77
2018-06-27T07:19:56.548Z,31.11
2018-06-27T07:20:56.523Z,31.75
2018-06-27T07:21:56.518Z,31.66
2018-06-27T07:22:56.506Z,31.58
2018-06-27T07:23:56.495Z,32.08
2018-06-27T07:24:56.511Z,31.87
2018-06-27T07:25:56.481Z,32.65
2018-06-27T07:26:56.472Z,33.21
2018-06-27T07:27:56.456Z,33.73
2018-06-27T07:28:56.451Z,33.01
2018-06-27T07:29:56.470Z,32.84
2018-06-27T07:30:56.428Z,32.52
2018-06-27T07:31:56.446Z,31.18
2018-06-27T07:32:56.408Z,31.53
2018-06-27T07:33:56.413Z,31.03
2018-06-27T07:34:56.418Z,31.46
2018-06-27T07:35:56.401Z,31.91
2018-06-27T07:36:56.370Z,32.65
2018-06-27T07:37:56.400Z,32.99
2018-06-27T07:38:56.350Z,32.89
2018-06-27T07:39:56.784Z,33.36
2018-06-27T07:40:56.340Z,34.24
2018-06-27T07:41:56.321Z,33.58
2018-06-27T07:42:56.313Z,32.75
2018-06-27T07:43:56.304Z,33.20
2018-06-27T07:44:56.308Z,32.83
2018-06-27T07:45:56.285Z,32.60
2018-06-27T07:46:56.277Z,32.67
2018-06-27T07:47:56.267Z,32.13
2018-06-27T07:48:56.270Z,32.74
2018-06-27T07:49:56.304Z,32.35
2018-06-27T07:50:56.236Z,32.82
2018-06-27T07:51:56.228Z,33.65
2018-06-27T07:52:56.236Z,32.24
2018-06-27T07:53:56.219Z,32.37
2018-06-27T07:54:56.212Z,32.57
2018-06-27T07:55:56.202Z,33.34
2018-06-27T07:56:56.182Z,33.17
2018-06-27T07:57:56.173Z,32.38
2018-06-27T07:58:56.163Z,32.86
2018-06-27T07:59:56.168Z,32.89
2018-06-27T08:00:56.145Z,33.34
2018-06-27T08:01:56.140Z,31.75
2018-06-27T08:02:56.130Z,31.18
2018-06-27T08:03:56.120Z,31.78
2018-06-27T08:04:56.122Z,32.25
2018-06-27T08:05:56.183Z,32.75
2018-06-27T08:06:56.089Z,32.69
2018-06-27T08:07:56.083Z,32.49
2018-06-27T08:08:56.072Z,33.06
2018-06-27T08:09:56.077Z,33.90
2018-06-27T08:10:56.054Z,34.20
2018-06-27T08:11:56.046Z,33.68
2018-06-27T08:12:56.044Z,33.96
2018-06-27T08:13:56.077Z,33.96
2018-06-27T08:14:56.061Z,34.90
2018-06-27T08:15:56.010Z,35.69
2018-06-27T08:16:56.000Z,35.30
2018-06-27T08:17:56.025Z,35.75
2018-06-27T08:18:55.983Z,36.27
2018-06-27T08:19:55.996Z,36.75
2018-06-27T08:20:55.967Z,35.20
2018-06-27T08:21:55.982Z,34.44
2018-06-27T08:22:55.947Z,33.71
2018-06-27T08:23:55.940Z,32.24
2018-06-27T08:24:55.928Z,32.25
2018-06-27T08:25:55.958Z,32.60
2018-06-27T08:26:55.919Z,32.65
2018-06-27T08:27:55.906Z,33.34
2018-06-27T08:28:55.897Z,33.34
2018-06-27T08:29:55.884Z,33.99
2018-06-27T08:30:55.889Z,34.67
2018-06-27T08:31:55.870Z,33.87
2018-06-27T08:32:55.863Z,33.34
2018-06-27T08:33:55.853Z,33.61
2018-06-27T08:34:55.857Z,33.77
2018-06-27T08:35:55.869Z,33.95
2018-06-27T08:36:55.827Z,34.02
2018-06-27T08:37:55.819Z,34.74
2018-06-27T08:38:55.814Z,34.86
2018-06-27T08:39:55.803Z,33.62
2018-06-27T08:40:55.795Z,33.31
2018-06-27T08:41:55.822Z,33.27
2018-06-27T08:42:55.775Z,33.71
2018-06-27T08:43:55.779Z,33.92
2018-06-27T08:44:55.757Z,34.18
2018-06-27T08:45:55.753Z,34.44
2018-06-27T08:46:55.783Z,34.90
2018-06-27T08:47:55.731Z,34.75
2018-06-27T08:48:55.721Z,35.60
2018-06-27T08:49:55.728Z,35.94
2018-06-27T08:50:55.701Z,36.40
2018-06-27T08:51:55.695Z,36.24
2018-06-27T08:52:55.699Z,36.51
2018-06-27T08:53:55.690Z,36.77
2018-06-27T08:54:55.668Z,36.55
2018-06-27T08:55:55.665Z,35.46
2018-06-27T08:56:55.653Z,34.17
2018-06-27T08:57:55.660Z,34.47
2018-06-27T08:58:55.700Z,35.15
2018-06-27T08:59:55.632Z,34.96
2018-06-27T09:00:55.619Z,34.96
2018-06-27T09:01:55.611Z,34.82
2018-06-27T09:02:55.618Z,34.44
2018-06-27T09:03:55.593Z,34.48
2018-06-27T09:04:55.588Z,35.06
2018-06-27T09:05:55.578Z,35.04
2018-06-27T09:06:55.573Z,35.50
2018-06-27T09:07:55.577Z,35.77
2018-06-27T09:08:55.555Z,35.71
2018-06-27T09:09:55.550Z,35.68
2018-06-27T09:10:55.546Z,35.71
2018-06-27T09:11:55.536Z,36.32
2018-06-27T09:12:55.541Z,35.90
2018-06-27T09:13:55.528Z,35.76
2018-06-27T09:14:55.510Z,35.90
2018-06-27T09:15:55.499Z,35.80
2018-06-27T09:16:55.492Z,35.58
2018-06-27T09:17:55.508Z,35.53
2018-06-27T09:18:55.476Z,36.05
2018-06-27T09:19:55.474Z,35.05
2018-06-27T09:20:55.471Z,34.61
2018-06-27T09:21:55.454Z,34.84
2018-06-27T09:22:55.469Z,34.59
2018-06-27T09:23:55.433Z,34.63
2018-06-27T09:24:55.424Z,34.84
2018-06-27T09:25:55.418Z,35.61
2018-06-27T09:26:55.422Z,35.68
2018-06-27T09:27:55.431Z,35.80
2018-06-27T09:28:55.394Z,36.68
2018-06-27T09:29:55.385Z,36.41
2018-06-27T09:30:55.378Z,36.24
2018-06-27T09:31:55.372Z,36.59
2018-06-27T09:32:55.385Z,35.96
2018-06-27T09:33:55.361Z,35.67
2018-06-27T09:34:55.371Z,35.87
2018-06-27T09:35:55.344Z,36.30
2018-06-27T09:36:55.331Z,35.64
2018-06-27T09:37:55.338Z,35.98
2018-06-27T09:38:55.314Z,36.24
2018-06-27T09:39:55.313Z,35.28
2018-06-27T09:40:55.312Z,34.44
2018-06-27T09:41:55.368Z,35.12
2018-06-27T09:42:55.305Z,35.73
2018-06-27T09:43:55.277Z,35.80
2018-06-27T09:44:55.268Z,35.38
2018-06-27T09:45:55.264Z,34.45
2018-06-27T09:46:55.295Z,35.27
2018-06-27T09:47:55.248Z,35.73
2018-06-27T09:48:55.257Z,35.99
2018-06-27T09:49:55.235Z,35.99
2018-06-27T09:50:55.231Z,35.55
2018-06-27T09:51:55.220Z,35.50
2018-06-27T09:52:55.295Z,35.58
2018-06-27T09:53:55.228Z,35.89
2018-06-27T09:54:55.194Z,35.55
2018-06-27T09:55:55.191Z,35.38
2018-06-27T09:56:55.224Z,34.45
2018-06-27T09:57:55.174Z,34.37
2018-06-27T09:58:55.164Z,34.49
2018-06-27T09:59:55.259Z,35.52
2018-06-27T10:00:55.152Z,36.17
2018-06-27T10:01:55.141Z,36.15
2018-06-27T10:02:55.142Z,36.32
2018-06-27T10:03:55.193Z,36.56
2018-06-27T10:04:55.145Z,37.34
2018-06-27T10:05:55.110Z,37.83
2018-06-27T10:06:55.118Z,36.90
2018-06-27T10:07:55.113Z,36.12
2018-06-27T10:08:55.088Z,35.82
2018-06-27T10:09:55.109Z,35.84
2018-06-27T10:10:55.142Z,35.92
2018-06-27T10:11:55.066Z,35.75
2018-06-27T10:12:55.097Z,35.31
2018-06-27T10:13:55.059Z,34.51
2018-06-27T10:14:55.062Z,34.66
2018-06-27T10:15:55.044Z,34.89
2018-06-27T10:16:55.056Z,35.15
2018-06-27T10:17:55.024Z,34.94
2018-06-27T10:18:55.013Z,34.93
2018-06-27T10:19:55.018Z,35.08
2018-06-27T10:20:54.995Z,36.44
2018-06-27T10:21:54.990Z,36.77
2018-06-27T10:22:54.984Z,36.41
2018-06-27T10:23:54.995Z,36.49
2018-06-27T10:24:54.993Z,36.77
2018-06-27T10:25:54.958Z,37.14
2018-06-27T10:26:54.950Z,37.23
2018-06-27T10:31:21.289Z,35.90
2018-06-27T10:32:21.284Z,36.17
2018-06-27T10:33:21.281Z,36.39
2018-06-27T10:34:21.271Z,36.75
2018-06-27T10:35:21.275Z,36.46
2018-06-27T10:36:21.267Z,36.22
2018-06-27T10:37:21.249Z,35.84
2018-06-27T10:38:21.241Z,36.24
2018-06-27T10:39:21.233Z,36.52
2018-06-27T10:40:21.229Z,37.24
2018-06-27T10:41:21.232Z,37.94
2018-06-27T10:42:21.211Z,37.54
2018-06-27T10:43:21.218Z,37.26
2018-06-27T10:44:21.199Z,37.14
2018-06-27T10:45:21.193Z,36.85
2018-06-27T10:46:21.198Z,36.88
2018-06-27T10:47:21.178Z,37.08
2018-06-27T10:48:21.169Z,37.12
2018-06-27T10:49:21.167Z,37.17
2018-06-27T10:50:21.156Z,36.99
2018-06-27T10:51:21.183Z,36.14
2018-06-27T10:52:21.140Z,35.58
2018-06-27T10:53:21.132Z,35.49
2018-06-27T10:54:21.126Z,35.02
2018-06-27T10:55:21.122Z,33.74
2018-06-27T10:56:21.115Z,33.09
2018-06-27T10:57:21.120Z,33.31
2018-06-27T10:58:21.095Z,33.62
2018-06-27T10:59:21.087Z,33.74
2018-06-27T11:00:21.081Z,33.39
2018-06-27T11:01:21.076Z,32.86
2018-06-27T11:02:21.084Z,32.52
2018-06-27T11:03:21.062Z,32.52
2018-06-27T11:04:21.050Z,32.18
2018-06-27T11:05:21.101Z,31.00
2018-06-27T11:06:21.037Z,30.60
2018-06-27T11:07:21.025Z,30.97
2018-06-27T11:08:21.034Z,31.19
2018-06-27T11:09:21.014Z,31.52
2018-06-27T11:10:21.002Z,31.49
2018-06-27T11:11:20.994Z,31.19
2018-06-27T11:12:20.986Z,31.30
2018-06-27T11:13:20.995Z,31.29
2018-06-27T11:14:20.973Z,31.38
2018-06-27T11:15:20.962Z,31.63
2018-06-27T11:16:20.957Z,31.18
2018-06-27T11:17:20.958Z,30.78
2018-06-27T11:18:20.955Z,30.54
2018-06-27T11:19:20.937Z,30.29
2018-06-27T11:20:20.940Z,30.43
2018-06-27T11:21:20.916Z,30.40
2018-06-27T11:22:20.917Z,30.43
2018-06-27T11:23:20.913Z,30.44
2018-06-27T11:24:20.895Z,30.47
2018-06-27T11:25:20.885Z,30.29
2018-06-27T11:26:20.879Z,30.51
2018-06-27T11:27:20.876Z,30.56
2018-06-27T11:28:20.863Z,30.62
2018-06-27T11:29:20.870Z,30.32
2018-06-27T11:30:20.856Z,30.29
2018-06-27T11:31:20.858Z,30.43
2018-06-27T11:32:20.833Z,30.25
2018-06-27T11:33:20.837Z,29.94
2018-06-27T11:34:20.820Z,29.66
2018-06-27T11:35:20.808Z,29.72
2018-06-27T11:36:20.799Z,29.83
2018-06-27T11:37:20.792Z,29.84
2018-06-27T11:38:20.804Z,29.83
2018-06-27T11:39:20.779Z,29.58
2018-06-27T11:40:20.766Z,29.32
2018-06-27T11:41:20.762Z,29.09
2018-06-27T11:42:20.767Z,29.25
2018-06-27T11:43:20.773Z,29.31
2018-06-27T11:44:20.736Z,29.41
2018-06-27T11:45:20.727Z,29.51
2018-06-27T11:46:20.716Z,29.35
2018-06-27T11:47:20.707Z,29.28
2018-06-27T11:48:20.706Z,29.29
2018-06-27T11:49:20.701Z,29.57
2018-06-27T11:50:20.679Z,29.60
2018-06-27T11:51:20.669Z,29.57
2018-06-27T11:52:20.660Z,29.58
2018-06-27T11:53:20.714Z,29.60
2018-06-27T11:54:20.664Z,29.63
2018-06-27T11:55:20.642Z,29.55
2018-06-27T11:56:20.629Z,29.32
2018-06-27T11:57:20.642Z,28.91
2018-06-27T11:58:20.612Z,28.83
2018-06-27T11:59:20.598Z,28.60
2018-06-27T12:00:20.596Z,28.63
2018-06-27T12:01:20.576Z,28.85
2018-06-27T12:02:20.570Z,28.83
2018-06-27T12:03:20.555Z,29.02
2018-06-27T12:04:20.571Z,28.90
2018-06-27T12:05:20.551Z,29.10
2018-06-27T12:06:20.526Z,29.10
2018-06-27T12:07:20.516Z,29.07
2018-06-27T12:08:20.512Z,28.95
2018-06-27T12:09:20.502Z,28.90
2018-06-27T12:10:20.502Z,28.78
2018-06-27T12:11:20.476Z,28.66
2018-06-27T12:12:20.466Z,28.39
2018-06-27T12:13:20.457Z,28.22
2018-06-27T12:14:20.453Z,28.26
2018-06-27T12:15:20.449Z,28.39
2018-06-27T12:16:20.428Z,28.60
2018-06-27T12:17:20.416Z,28.75
2018-06-27T12:18:20.406Z,28.72
2018-06-27T12:19:20.398Z,28.75
2018-06-27T12:20:20.400Z,28.81
2018-06-27T12:21:20.375Z,28.91
2018-06-27T12:22:20.368Z,29.05
2018-06-27T12:23:20.369Z,29.26
2018-06-27T12:24:20.348Z,29.31
2018-06-27T12:25:20.359Z,29.17
2018-06-27T12:26:20.345Z,29.16
2018-06-27T12:27:20.318Z,29.36
2018-06-27T12:28:20.308Z,29.23
2018-06-27T12:29:20.298Z,28.75
2018-06-27T12:30:20.312Z,28.38
2018-06-27T12:31:20.277Z,28.22
2018-06-27T12:32:20.275Z,28.23
2018-06-27T12:33:20.257Z,28.30
2018-06-27T12:34:20.248Z,28.24
2018-06-27T12:35:20.274Z,28.16
2018-06-27T12:36:20.226Z,28.11
2018-06-27T12:37:20.245Z,27.99
2018-06-27T12:38:20.212Z,27.93
2018-06-27T12:39:20.193Z,28.20
2018-06-27T12:40:20.184Z,28.19
2018-06-27T12:41:20.184Z,28.17
2018-06-27T12:42:20.163Z,28.26
2018-06-27T12:43:20.158Z,28.29
2018-06-27T12:44:20.176Z,28.38
2018-06-27T12:45:20.131Z,28.30
2018-06-27T12:46:20.138Z,28.27
2018-06-27T12:47:20.112Z,28.23
2018-06-27T12:48:20.103Z,28.34
2018-06-27T12:49:20.092Z,28.30
2018-06-27T12:50:20.151Z,28.30
2018-06-27T12:51:20.070Z,28.44
2018-06-27T12:52:20.076Z,28.64
2018-06-27T12:53:20.053Z,28.88
2018-06-27T12:54:20.040Z,28.81
2018-06-27T12:55:20.031Z,28.88
2018-06-27T12:56:20.020Z,28.93
2018-06-27T12:57:20.025Z,28.88
2018-06-27T12:58:20.003Z,29.01